• Join FlightAware (Why Join?)
  • Login
  • US Flag 
09:18PM EDT


 

Airport Tracker/Info


-or-


 

Live Flight TrackerFlight Track Log ✈ XOJ549 ✈ 06-Jul-2013 ✈ KERV - KTEB

Flight Track Log - Related Links

Times and Time Zones

All times are in EDT time to prevent confusion due to time zone crossing. See the XOJ549 flight status page for this flight to view local times or setup timezone preferences in your user account.

Time Position Orientation Groundspeed Altitude Reporting Facility
EDT Latitude Longitude Course Direction KTS MPH feet Rate Location/Type
10:19AM 29.9639 -99.0450 69° East 169 194 3,800  Level Houston Center
10:19AM 29.9639 -99.0450 69° East 169 194 3,800 1,980 Level Houston Center
10:20AM 29.9806 -98.9719 75° East 216 249 5,900 1,980 Climbing Houston Center
10:20AM 29.9806 -98.9719 75° East 216 249 5,900 3,600 Level Houston Center
10:21AM 30.0017 -98.8992 71° East 237 273 9,600 3,600 Climbing Houston Center
10:21AM 30.0017 -98.8992 71° East 237 273 9,600 3,480 Level Houston Center
10:22AM 30.1861 -98.2894 74° East  Level FlightAware Approximate
10:22AM 30.1861 -98.2894 74° East  Level FlightAware Approximate
10:22AM 30.0275 -98.8100 71° East 285 328 13,200  Level Houston Center
10:22AM 30.0275 -98.8100 71° East 285 328 13,200 3,540 Level Houston Center
10:23AM 30.2203 -98.1539 72° East  Level FlightAware Approximate
10:23AM 30.2203 -98.1539 72° East  Level FlightAware Approximate
10:23AM 30.0556 -98.7142 71° East 293 337 16,800  Level Houston Center
10:23AM 30.0556 -98.7142 71° East 293 337 16,800 1,920 Level Houston Center
10:24AM 30.2638 -98.0225 60° Northeast  Level FlightAware Approximate
10:24AM 30.2638 -98.0225 60° Northeast  Level FlightAware Approximate
10:24AM 30.0844 -98.6156 71° East 323 372 18,800  Level Houston Center
10:24AM 30.0844 -98.6156 71° East 323 372 18,800 2,220 Level Houston Center
10:25AM 30.2982 -97.8890 69° East  Level FlightAware Approximate
10:25AM 30.2982 -97.8890 69° East  Level FlightAware Approximate
10:25AM 30.1167 -98.5050 71° East 359 413 21,100  Level Houston Center
10:25AM 30.1167 -98.5050 71° East 359 413 21,100 2,340 Level Houston Center
10:26AM 30.1511 -98.3908 71° East 373 429 23,500 2,340 Climbing Houston Center
10:26AM 30.1511 -98.3908 71° East 373 429 23,500 2,100 Level Houston Center
10:27AM 30.1881 -98.2647 71° East 386 444 25,700 2,100 Climbing Houston Center
10:27AM 30.1881 -98.2647 71° East 386 444 25,700 2,040 Level Houston Center
10:28AM 30.2244 -98.1406 71° East 406 467 27,800 2,040 Climbing Houston Center
10:28AM 30.2244 -98.1406 71° East 406 467 27,800 1,200 Level Houston Center
10:30AM 30.2647 -98.0050 71° East 413 475 29,100 1,200 Climbing Houston Center
10:30AM 30.2647 -98.0050 71° East 413 475 29,100 960 Level Houston Center
10:31AM 30.3006 -97.8778 72° East 441 507 30,100 960 Climbing Houston Center
10:31AM 30.3006 -97.8778 72° East 441 507 30,100 1,620 Level Houston Center
10:32AM 30.3417 -97.7381 71° East 455 524 31,800 1,620 Climbing Houston Center
10:32AM 30.3417 -97.7381 71° East 455 524 31,800 2,280 Level Houston Center
10:33AM 30.3797 -97.6028 72° East 441 507 34,200 2,280 Climbing Houston Center
10:33AM 30.3797 -97.6028 72° East 441 507 34,200 2,640 Level Houston Center
10:34AM 30.4147 -97.4761 72° East 418 481 36,900 2,640 Climbing Houston Center
10:34AM 30.4147 -97.4761 72° East 418 481 36,900 2,100 Level Houston Center
10:35AM 30.4481 -97.3583 72° East 391 450 39,100 2,100 Climbing Houston Center
10:35AM 30.4481 -97.3583 72° East 391 450 39,100 1,200 Level Houston Center
10:36AM 30.4875 -97.2194 72° East 388 447 40,400 1,200 Climbing Houston Center
10:36AM 30.4875 -97.2194 72° East 388 447 40,400 540 Level Houston Center
10:37AM 30.5219 -97.0989 72° East 393 452 41,000 540 Climbing Houston Center
10:37AM 30.5219 -97.0989 72° East 393 452 41,000  Level Houston Center
10:38AM 30.5569 -96.9692 73° East 417 480 41,000  Level Houston Center
10:38AM 30.5569 -96.9692 73° East 417 480 41,000  Level Houston Center
10:39AM 30.5958 -96.8344 71° East 437 503 41,000  Level Houston Center
10:39AM 30.5958 -96.8344 71° East 437 503 41,000  Level Houston Center
10:40AM 30.6336 -96.6983 72° East 442 509 41,000  Level Houston Center
10:40AM 30.6336 -96.6983 72° East 442 509 41,000  Level Houston Center
10:41AM 30.6706 -96.5614 73° East 441 507 41,000  Level Houston Center
10:41AM 30.6706 -96.5614 73° East 441 507 41,000  Level Houston Center
10:42AM 30.7078 -96.4261 72° East 441 507 41,000  Level Houston Center
10:42AM 30.7078 -96.4261 72° East 441 507 41,000  Level Houston Center
10:43AM 30.7464 -96.2906 72° East 440 506 41,000  Level Houston Center
10:43AM 30.7464 -96.2906 72° East 440 506 41,000  Level Houston Center
10:44AM 30.7867 -96.1361 73° East 433 498 41,000  Level Houston Center
10:44AM 30.7867 -96.1361 73° East 433 498 41,000  Level Houston Center
10:45AM 30.8186 -96.0164 73° East 435 501 41,000  Level Houston Center
10:45AM 30.8186 -96.0164 73° East 435 501 41,000  Level Houston Center
10:46AM 30.8553 -95.8831 72° East 434 499 41,000  Level Houston Center
10:46AM 30.8553 -95.8831 72° East 434 499 41,000  Level Houston Center
10:47AM 30.9328 -95.7444 57° Northeast 430 495 41,000  Level Houston Center
10:47AM 30.9328 -95.7444 57° Northeast 430 495 41,000  Level Houston Center
10:48AM 31.0158 -95.6411 47° Northeast 426 490 41,000  Level Houston Center
10:48AM 31.0158 -95.6411 47° Northeast 426 490 41,000  Level Houston Center
10:49AM 31.0972 -95.5381 47° Northeast 425 489 41,000  Level Houston Center
10:49AM 31.0972 -95.5381 47° Northeast 425 489 41,000  Level Houston Center
10:50AM 31.1775 -95.4303 49° Northeast 432 497 41,000  Level Houston Center
10:50AM 31.1775 -95.4303 49° Northeast 432 497 41,000  Level Houston Center
10:51AM 31.2586 -95.3211 49° Northeast 441 507 41,000  Level Houston Center
10:51AM 31.2586 -95.3211 49° Northeast 441 507 41,000  Level Houston Center
10:52AM 31.3414 -95.2125 48° Northeast 442 509 41,000  Level Houston Center
10:52AM 31.3414 -95.2125 48° Northeast 442 509 41,000  Level Houston Center
10:53AM 31.4217 -95.1072 48° Northeast 433 498 41,000  Level Houston Center
10:53AM 31.4217 -95.1072 48° Northeast 433 498 41,000  Level Houston Center
10:54AM 31.5031 -94.9972 49° Northeast 439 505 41,000  Level Houston Center
10:54AM 31.5031 -94.9972 49° Northeast 439 505 41,000  Level Houston Center
10:55AM 31.5858 -94.8878 48° Northeast 443 510 41,000  Level Houston Center
10:55AM 31.5858 -94.8878 48° Northeast 443 510 41,000  Level Houston Center
10:56AM 31.6661 -94.7789 49° Northeast 439 505 41,000  Level Houston Center
10:56AM 31.6661 -94.7789 49° Northeast 439 505 41,000  Level Houston Center
10:57AM 31.7478 -94.6686 49° Northeast 443 510 41,000  Level Houston Center
10:57AM 31.7478 -94.6686 49° Northeast 443 510 41,000  Level Houston Center
10:58AM 31.8458 -94.5375 49° Northeast 442 509 41,000  Level Houston Center
10:58AM 31.8458 -94.5375 49° Northeast 442 509 41,000  Level Houston Center
10:59AM 31.8953 -94.4722 48° Northeast 438 504 41,000  Level Fort Worth Center
10:59AM 31.8953 -94.4722 48° Northeast 438 504 41,000  Level Fort Worth Center
11:00AM 31.9761 -94.3619 49° Northeast 438 504 41,000  Level Fort Worth Center
11:00AM 31.9761 -94.3619 49° Northeast 438 504 41,000  Level Fort Worth Center
11:01AM 32.0569 -94.2539 49° Northeast 438 504 41,000  Level Fort Worth Center
11:01AM 32.0569 -94.2539 49° Northeast 438 504 41,000  Level Fort Worth Center
11:02AM 32.1375 -94.1431 49° Northeast 438 504 41,000  Level Fort Worth Center
11:02AM 32.1375 -94.1431 49° Northeast 438 504 41,000  Level Fort Worth Center
11:03AM 32.2139 -94.0322 51° Northeast 438 504 41,000  Level Fort Worth Center
11:03AM 32.2139 -94.0322 51° Northeast 438 504 41,000  Level Fort Worth Center
11:04AM 32.2944 -93.9186 50° Northeast 438 504 41,000  Level Fort Worth Center
11:04AM 32.2944 -93.9186 50° Northeast 438 504 41,000  Level Fort Worth Center
11:05AM 32.3747 -93.8075 49° Northeast 438 504 41,000  Level Fort Worth Center
11:05AM 32.3747 -93.8075 49° Northeast 438 504 41,000  Level Fort Worth Center
11:06AM 32.4569 -93.6958 49° Northeast 438 504 41,000  Level Fort Worth Center
11:06AM 32.4569 -93.6958 49° Northeast 438 504 41,000  Level Fort Worth Center
11:07AM 32.5372 -93.5867 49° Northeast 438 504 41,000  Level Fort Worth Center
11:07AM 32.5372 -93.5867 49° Northeast 438 504 41,000  Level Fort Worth Center
11:08AM 32.6172 -93.4747 50° Northeast 438 504 41,000  Level Fort Worth Center
11:08AM 32.6172 -93.4747 50° Northeast 438 504 41,000  Level Fort Worth Center
11:09AM 32.6994 -93.3625 49° Northeast 438 504 41,000  Level Fort Worth Center
11:09AM 32.6994 -93.3625 49° Northeast 438 504 41,000  Level Fort Worth Center
11:10AM 32.7769 -93.2503 51° Northeast 438 504 41,000  Level Fort Worth Center
11:10AM 32.7769 -93.2503 51° Northeast 438 504 41,000  Level Fort Worth Center
11:11AM 32.8589 -93.1378 49° Northeast 438 504 41,000  Level Fort Worth Center
11:11AM 32.8589 -93.1378 49° Northeast 438 504 41,000  Level Fort Worth Center
11:12AM 32.9406 -93.0247 49° Northeast 438 504 41,000  Level Fort Worth Center
11:12AM 32.9406 -93.0247 49° Northeast 438 504 41,000  Level Fort Worth Center
11:13AM 33.0222 -92.9119 49° Northeast 438 504 41,000  Level Fort Worth Center
11:13AM 33.0222 -92.9119 49° Northeast 438 504 41,000  Level Fort Worth Center
11:14AM 33.1014 -92.7964 51° Northeast 438 504 41,000  Level Fort Worth Center
11:14AM 33.1014 -92.7964 51° Northeast 438 504 41,000  Level Fort Worth Center
11:15AM 33.1847 -92.6803 49° Northeast 444 511 41,000  Level Fort Worth Center
11:15AM 33.1847 -92.6803 49° Northeast 444 511 41,000  Level Fort Worth Center
11:16AM 33.2528 -92.5525 57° Northeast 444 511 41,000  Level Fort Worth Center
11:16AM 33.2528 -92.5525 57° Northeast 444 511 41,000  Level Fort Worth Center
11:17AM 33.3164 -92.4172 61° Northeast 457 526 41,000  Level Fort Worth Center
11:17AM 33.3164 -92.4172 61° Northeast 457 526 41,000  Level Fort Worth Center
11:18AM 33.3800 -92.2842 60° Northeast 457 526 41,000  Level Fort Worth Center
11:18AM 33.3800 -92.2842 60° Northeast 457 526 41,000  Level Fort Worth Center
11:26AM 33.8717 -91.1878 61° Northeast 467 537 41,000  Level Memphis Center
11:27AM 33.9392 -91.0483 60° Northeast 472 543 41,000  Level Memphis Center
11:28AM 34.0025 -90.9058 62° Northeast 472 543 41,000  Level Memphis Center
11:29AM 34.0678 -90.7633 61° Northeast 477 549 41,000  Level Memphis Center
11:30AM 34.1308 -90.6206 62° Northeast 477 549 41,000  Level Memphis Center
11:31AM 34.1936 -90.4753 62° Northeast 477 549 41,000  Level Memphis Center
11:32AM 34.2625 -90.3169 62° Northeast 477 549 41,000  Level Memphis Center
11:33AM 34.3269 -90.1711 62° Northeast 482 555 41,000  Level Memphis Center
11:34AM 34.3892 -90.0275 62° Northeast 482 555 41,000  Level Memphis Center
11:35AM 34.4514 -89.8761 63° Northeast 482 555 41,000  Level Memphis Center
11:36AM 34.5133 -89.7269 63° Northeast 488 562 41,000  Level Memphis Center
11:37AM 34.5792 -89.5753 62° Northeast 493 567 41,000  Level Memphis Center
11:38AM 34.6450 -89.4256 62° Northeast 498 573 41,000  Level Memphis Center
11:39AM 34.7106 -89.2733 62° Northeast 498 573 41,000  Level Memphis Center
11:40AM 34.7758 -89.1208 62° Northeast 498 573 41,000  Level Memphis Center
11:41AM 34.8411 -88.9706 62° Northeast 498 573 41,000  Level Memphis Center
11:42AM 34.9061 -88.8225 62° Northeast 498 573 41,000  Level Memphis Center
11:43AM 34.9708 -88.6667 63° Northeast 498 573 41,000  Level Memphis Center
11:44AM 35.0353 -88.5158 62° Northeast 498 573 41,000  Level Memphis Center
11:45AM 35.0956 -88.3597 65° Northeast 498 573 41,000  Level Memphis Center
11:46AM 35.1597 -88.2058 63° Northeast 497 572 41,000  Level Memphis Center
11:47AM 35.2258 -88.0567 61° Northeast 491 565 41,000  Level Memphis Center
11:48AM 35.2875 -87.9022 64° Northeast 496 571 41,000  Level Memphis Center
11:49AM 35.3431 -87.7658 63° Northeast 501 577 41,000  Level Memphis Center
11:50AM 35.4067 -87.6111 63° Northeast 501 577 41,000  Level Memphis Center
11:51AM 35.4678 -87.4533 65° Northeast 506 582 41,000  Level Memphis Center
11:52AM 35.5328 -87.2956 63° Northeast 506 582 41,000  Level Memphis Center
11:53AM 35.5975 -87.1322 64° Northeast 511 588 41,000  Level Memphis Center
11:54AM 35.6600 -86.9742 64° Northeast 511 588 41,000  Level Memphis Center
11:55AM 35.7242 -86.8128 64° Northeast 511 588 41,000  Level Memphis Center
11:56AM 35.7861 -86.6517 65° Northeast 511 588 41,000  Level Memphis Center
11:57AM 35.8461 -86.4953 65° Northeast 511 588 41,000  Level Memphis Center
11:58AM 35.9097 -86.3333 64° Northeast 511 588 41,000  Level Memphis Center
11:59AM 35.9714 -86.1764 64° Northeast 511 588 41,000  Level Memphis Center
12:00PM 36.0367 -86.0139 64° Northeast 511 588 41,000  Level Memphis Center
12:02PM 36.1300 -85.7706 65° Northeast 516 594 41,000  Level Indianapolis Center
12:03PM 36.1919 -85.6103 64° Northeast 514 592 41,000  Level Indianapolis Center
12:04PM 36.2539 -85.4514 64° Northeast 511 588 41,000  Level Indianapolis Center
12:05PM 36.3139 -85.2894 65° Northeast 513 590 41,000  Level Indianapolis Center
12:06PM 36.3861 -85.0981 65° Northeast 508 585 41,000  Level Indianapolis Center
12:07PM 36.4450 -84.9392 65° Northeast 503 579 41,000  Level Indianapolis Center
12:08PM 36.5028 -84.7806 66° East 500 575 41,000  Level Indianapolis Center
12:09PM 36.5617 -84.6219 65° Northeast 502 578 41,000  Level Indianapolis Center
12:10PM 36.6189 -84.4681 65° Northeast 497 572 41,000  Level Indianapolis Center
12:11PM 36.6756 -84.3089 66° East 501 577 41,000  Level Indianapolis Center
12:12PM 36.7342 -84.1528 65° Northeast 499 574 41,000  Level Indianapolis Center
12:13PM 36.7897 -83.9942 66° East 498 573 41,000  Level Indianapolis Center
12:14PM 36.8472 -83.8389 65° Northeast 493 567 41,000  Level Indianapolis Center
12:15PM 36.9056 -83.6808 65° Northeast 497 572 41,000  Level Indianapolis Center
12:16PM 36.9608 -83.5247 66° East 491 565 41,000  Level Indianapolis Center
12:17PM 37.0269 -83.3414 66° East 493 567 41,000  Level Indianapolis Center
12:18PM 37.0828 -83.1847 66° East 489 563 41,000  Level Indianapolis Center
12:19PM 37.1392 -83.0267 66° East 489 563 41,000  Level Indianapolis Center
12:20PM 37.1942 -82.8669 67° East 490 564 41,000  Level Indianapolis Center
12:21PM 37.2472 -82.7094 67° East 485 558 41,000  Level Indianapolis Center
12:22PM 37.3019 -82.5536 66° East 484 557 41,000  Level Indianapolis Center
12:23PM 37.3550 -82.3972 67° East 483 556 41,000  Level Indianapolis Center
12:24PM 37.4083 -82.2431 66° East 480 552 41,000  Level Indianapolis Center
12:25PM 37.4619 -82.0875 66° East 482 555 41,000  Level Indianapolis Center
12:26PM 37.5128 -81.9331 67° East 479 551 41,000  Level Indianapolis Center
12:27PM 37.5639 -81.7800 67° East 475 547 41,000  Level Indianapolis Center
12:28PM 37.6164 -81.6281 66° East 472 543 41,000  Level Indianapolis Center
12:29PM 37.6686 -81.4681 68° East 473 544 41,000  Level Indianapolis Center
12:30PM 37.7186 -81.3194 67° East 473 544 41,000  Level Indianapolis Center
12:31PM 37.7744 -81.1414 68° East 468 539 41,000  Level Indianapolis Center
12:32PM 37.7897 -80.9836 83° East 463 533 41,000  Level Indianapolis Center
12:33PM 37.8031 -80.8267 84° East 463 533 41,000  Level Indianapolis Center
12:34PM 37.8175 -80.6497 84° East 467 537 41,000  Level Indianapolis Center
12:35PM 37.8289 -80.5453 82° East 458 527 41,000  Level Washington Center
12:36PM 37.8419 -80.3831 84° East 463 533 41,000  Level Washington Center
12:37PM 37.8592 -80.2053 83° East 458 527 41,000  Level Washington Center
12:38PM 37.8739 -80.0431 83° East 463 533 41,000  Level Washington Center
12:39PM 37.8881 -79.8833 84° East 463 533 41,000  Level Washington Center
12:40PM 37.9019 -79.7236 84° East 458 527 41,000  Level Washington Center
12:41PM 37.9158 -79.5611 84° East 458 527 41,000  Level Washington Center
12:42PM 37.9294 -79.3986 84° East 458 527 41,000  Level Washington Center
12:43PM 37.9400 -79.2569 85° East 458 527 41,000  Level Washington Center
12:44PM 37.9511 -79.0969 85° East 458 527 41,000  Level Washington Center
12:45PM 37.9619 -78.9367 85° East 458 527 41,000  Level Washington Center
12:46PM 37.9744 -78.7819 84° East 458 527 41,000  Level Washington Center
12:47PM 37.9872 -78.6058 85° East 458 527 41,000  Level Washington Center
12:48PM 37.9975 -78.4508 85° East 458 527 41,000  Level Washington Center
12:49PM 38.0094 -78.2906 85° East 453 521 41,000  Level Washington Center
12:50PM 38.0228 -78.1539 83° East 446 513 41,000  Level Washington Center
12:51PM 38.0819 -78.0161 61° Northeast 432 497 41,000  Level Washington Center
12:52PM 38.1514 -77.8811 57° Northeast 432 497 41,000  Level Washington Center
12:53PM 38.2164 -77.7456 59° Northeast 438 504 41,000  Level Washington Center
12:54PM 38.2814 -77.6125 58° Northeast 443 510 41,000  Level Washington Center
12:55PM 38.3483 -77.4767 58° Northeast 443 510 41,000 -300 Level Washington Center
12:56PM 38.4272 -77.3514 51° Northeast 448 516 40,400 -840 Descending Washington Center
12:57PM 38.5083 -77.2286 50° Northeast 448 516 39,400 -1,020 Descending Washington Center
12:58PM 38.5911 -77.1031 50° Northeast 453 521 38,400 -1,200 Descending Washington Center
12:59PM 38.6739 -76.9769 50° Northeast 453 521 37,000 -1,620 Descending Washington Center
01:00PM 38.7547 -76.8481 51° Northeast 453 521 35,300 -1,860 Descending Washington Center
01:01PM 38.8350 -76.7217 51° Northeast 458 527 33,400 -2,040 Descending Washington Center
01:02PM 38.9281 -76.5764 51° Northeast 472 543 31,300 -2,700 Descending Washington Center
01:03PM 39.0125 -76.4439 51° Northeast 483 556 28,000 -3,000 Descending Washington Center
01:04PM 39.1008 -76.3058 50° Northeast 497 572 25,400 -2,040 Descending Washington Center
01:05PM 39.1892 -76.1833 47° Northeast 484 557 24,000 -720 Descending Washington Center
01:06PM 39.2917 -76.0742 39° Northeast 467 537 24,000 -900 Level Washington Center
01:07PM 39.3964 -75.9756 36° Northeast 467 537 22,300 -2,280 Descending Washington Center
01:09PM 39.6000 -75.7833 36° Northeast 437 503 17,300 -2,520 Descending Philadelphia TRACON
01:10PM 39.7000 -75.6833 38° Northeast 418 481 15,000 -2,220 Descending Philadelphia TRACON
01:11PM 39.7833 -75.6167 32° Northeast 402 463 13,100 -1,080 Descending Philadelphia TRACON
01:12PM 39.8667 -75.5333 37° Northeast 391 450 13,000 -60 Descending Philadelphia TRACON
01:13PM 39.9667 -75.4500 33° Northeast 392 451 13,000 -60 Level Philadelphia TRACON
01:14PM 40.0333 -75.3667 44° Northeast 393 452 12,900 -660 Descending Philadelphia TRACON
01:15PM 40.1500 -75.2833 29° Northeast 390 449 11,700 -960 Descending Philadelphia TRACON
01:17PM 40.3000 -75.1500 34° Northeast 344 396 10,100 -1,200 Descending New York TRACON
01:18PM 40.3500 -75.0667 52° Northeast 309 356 8,400 -1,320 Descending New York TRACON
01:19PM 40.4167 -74.9833 44° Northeast 301 346 7,500 -1,140 Descending New York TRACON
01:20PM 40.4667 -74.9000 52° Northeast 302 348 6,200 -1,500 Descending New York TRACON
01:21PM 40.5167 -74.8333 45° Northeast 287 330 4,600 -1,140 Descending New York TRACON
01:22PM 40.5667 -74.7500 52° Northeast 281 323 4,100 -300 Descending New York TRACON
01:23PM 40.6500 -74.7000 24° Northeast 277 319 4,100  Level New York TRACON
01:24PM 40.7167 -74.6500 30° Northeast 281 323 4,100 -60 Level New York TRACON
01:25PM 40.7833 -74.6000 30° Northeast 279 321 4,000 -240 Descending New York TRACON
01:26PM 40.8333 -74.5333 45° Northeast 277 319 3,700 -540 Descending New York TRACON
01:27PM 40.9000 -74.4667 37° Northeast 276 318 3,000 -300 Descending New York TRACON
01:28PM 40.9333 -74.3833 62° Northeast 275 316 3,100  Climbing New York TRACON
01:29PM 40.9667 -74.3000 62° Northeast 272 313 3,000 -420 Descending New York TRACON
01:31PM 41.0167 -74.1167 70° East 271 312 2,000 -540 Descending New York TRACON